createdAt,value
2019-05-23T00:01:01.558Z,99.90
2019-05-23T00:03:36.858Z,99.90
2019-05-23T00:06:06.211Z,99.90
2019-05-23T00:08:34.515Z,99.90
2019-05-23T00:11:04.091Z,99.90
2019-05-23T00:13:43.216Z,99.90
2019-05-23T00:16:12.031Z,99.90
2019-05-23T00:18:40.352Z,99.90
2019-05-23T00:23:38.370Z,99.90
2019-05-23T00:26:06.460Z,99.90
2019-05-23T00:28:35.055Z,99.90
2019-05-23T00:31:04.510Z,99.90
2019-05-23T00:33:32.872Z,99.90
2019-05-23T00:36:02.007Z,99.90
2019-05-23T00:38:31.227Z,99.90
2019-05-23T00:40:59.574Z,99.90
2019-05-23T00:43:27.443Z,99.90
2019-05-23T00:45:55.243Z,99.90
2019-05-23T00:48:24.556Z,99.90
2019-05-23T00:50:53.249Z,99.90
2019-05-23T00:53:21.011Z,99.90
2019-05-23T00:55:48.720Z,99.90
2019-05-23T00:58:17.998Z,99.90
2019-05-23T01:00:45.634Z,99.90
2019-05-23T01:03:14.315Z,99.90
2019-05-23T01:05:42.826Z,99.90
2019-05-23T01:08:10.526Z,99.90
2019-05-23T01:10:38.360Z,99.90
2019-05-23T01:13:06.326Z,99.90
2019-05-23T01:15:35.829Z,99.90
2019-05-23T01:18:03.911Z,99.90
2019-05-23T01:20:50.013Z,99.90
2019-05-23T01:23:19.283Z,99.90
2019-05-23T01:25:46.924Z,99.90
2019-05-23T01:28:14.563Z,99.90
2019-05-23T01:30:49.639Z,99.90
2019-05-23T01:33:17.725Z,99.90
2019-05-23T01:35:45.825Z,99.90
2019-05-23T01:38:14.532Z,99.90
2019-05-23T01:43:11.873Z,99.90
2019-05-23T02:15:16.508Z,99.90
2019-05-23T02:17:45.097Z,99.90
2019-05-23T02:22:42.243Z,99.90
2019-05-23T02:25:12.199Z,99.90
2019-05-23T02:30:08.292Z,99.90
2019-05-23T02:32:35.921Z,99.90
2019-05-23T02:35:08.006Z,99.90
2019-05-23T02:37:43.203Z,99.90
2019-05-23T02:40:16.219Z,99.90
2019-05-23T02:42:45.548Z,99.90
2019-05-23T02:45:16.001Z,99.90
2019-05-23T02:47:49.566Z,99.90
2019-05-23T02:50:20.121Z,99.90
2019-05-23T02:52:49.295Z,99.90
2019-05-23T02:55:19.832Z,99.90
2019-05-23T02:57:47.720Z,99.90
2019-05-23T03:00:21.251Z,99.90
2019-05-23T03:02:51.779Z,99.90
2019-05-23T03:05:21.926Z,99.90
2019-05-23T03:07:50.519Z,99.90
2019-05-23T03:10:19.932Z,99.90
2019-05-23T03:12:49.298Z,99.90
2019-05-23T03:15:17.115Z,99.90
2019-05-23T03:17:47.051Z,99.90
2019-05-23T03:20:16.526Z,99.90
2019-05-23T03:22:48.463Z,99.90
2019-05-23T03:25:21.708Z,99.90
2019-05-23T03:27:49.773Z,99.90
2019-05-23T03:30:19.061Z,99.90
2019-05-23T03:32:51.260Z,99.90
2019-05-23T03:35:20.560Z,99.90
2019-05-23T03:37:49.756Z,99.90
2019-05-23T03:40:18.231Z,99.90
2019-05-23T05:04:04.577Z,99.90
2019-05-23T05:16:24.287Z,99.90
2019-05-23T05:18:55.081Z,99.90
2019-05-23T05:21:21.274Z,99.90
2019-05-23T05:23:48.915Z,99.90
2019-05-23T05:26:18.094Z,99.90
2019-05-23T05:28:46.181Z,99.90
2019-05-23T05:31:13.975Z,99.90
2019-05-23T05:33:41.610Z,99.90
2019-05-23T05:36:09.237Z,99.90
2019-05-23T05:38:37.006Z,99.90
2019-05-23T05:41:05.119Z,99.90
2019-05-23T05:43:33.292Z,99.90
2019-05-23T05:46:01.660Z,99.90
2019-05-23T05:48:30.251Z,99.90
2019-05-23T05:50:58.062Z,99.90
2019-05-23T05:53:25.771Z,99.90
2019-05-23T05:55:53.415Z,99.90
2019-05-23T05:58:21.064Z,99.90
2019-05-23T06:00:50.519Z,99.90
2019-05-23T06:03:18.291Z,99.90
2019-05-23T06:06:04.708Z,99.90
2019-05-23T06:08:36.723Z,99.90
2019-05-23T06:11:04.595Z,99.90
2019-05-23T06:15:59.675Z,99.90
2019-05-23T06:18:27.583Z,99.90
2019-05-23T06:20:55.295Z,99.90
2019-05-23T06:23:22.956Z,99.90
2019-05-23T06:25:50.664Z,99.90
2019-05-23T06:28:19.442Z,99.90
2019-05-23T06:30:47.619Z,99.90
2019-05-23T06:33:23.405Z,99.90
2019-05-23T06:35:45.458Z,99.90
2019-05-23T06:40:40.719Z,99.90
2019-05-23T06:43:09.306Z,99.90
2019-05-23T06:45:38.599Z,99.90
2019-05-23T06:48:06.761Z,99.90
2019-05-23T06:50:34.502Z,99.90
2019-05-23T06:53:03.054Z,99.90
2019-05-23T06:55:30.710Z,99.90
2019-05-23T06:57:58.513Z,99.90
2019-05-23T07:00:27.875Z,99.90
2019-05-23T07:05:24.704Z,99.90
2019-05-23T07:07:52.335Z,99.90
2019-05-23T07:10:20.047Z,99.90
2019-05-23T07:15:15.351Z,99.90
2019-05-23T07:20:10.713Z,99.90
2019-05-23T07:22:38.647Z,99.90
2019-05-23T07:27:34.999Z,99.90
2019-05-23T07:30:03.936Z,99.90
2019-05-23T07:34:58.939Z,99.90
2019-05-23T07:39:53.956Z,99.90
2019-05-23T07:42:22.160Z,99.90
2019-05-23T07:44:51.443Z,99.90
2019-05-23T07:47:19.087Z,99.90
2019-05-23T07:57:27.175Z,99.90
2019-05-23T07:59:55.871Z,99.90
2019-05-23T08:02:26.709Z,99.90
2019-05-23T08:04:54.354Z,99.90
2019-05-23T08:07:23.646Z,99.90
2019-05-23T08:09:51.319Z,99.90
2019-05-23T08:12:19.101Z,99.90
2019-05-23T08:14:46.742Z,99.90
2019-05-23T08:17:14.727Z,99.90
2019-05-23T08:19:49.546Z,99.90
2019-05-23T08:22:11.740Z,99.90
2019-05-23T08:24:39.471Z,99.90
2019-05-23T08:27:07.279Z,99.90
2019-05-23T08:29:34.991Z,99.90
2019-05-23T08:32:04.481Z,99.90
2019-05-23T08:34:41.801Z,99.90
2019-05-23T08:39:29.955Z,99.90
2019-05-23T08:41:57.626Z,99.90
2019-05-23T08:44:25.330Z,99.90
2019-05-23T08:46:52.993Z,99.90
2019-05-23T08:49:20.799Z,99.90
2019-05-23T08:54:16.794Z,99.90
2019-05-23T08:56:44.631Z,99.90
2019-05-23T08:59:12.344Z,99.90
2019-05-23T09:01:39.997Z,99.90
2019-05-23T09:04:09.075Z,99.90
2019-05-23T09:06:37.273Z,99.90
2019-05-23T09:09:27.495Z,99.90
2019-05-23T09:11:37.750Z,99.90
2019-05-23T09:14:05.556Z,99.90
2019-05-23T09:16:33.446Z,99.90
2019-05-23T09:21:28.528Z,99.90
2019-05-23T09:23:56.205Z,99.90
2019-05-23T09:26:24.196Z,99.90
2019-05-23T09:28:52.015Z,99.90
2019-05-23T09:31:21.700Z,99.90
2019-05-23T09:33:49.339Z,99.90
2019-05-23T09:36:17.007Z,99.90
2019-05-23T09:38:44.659Z,99.90
2019-05-23T09:41:12.331Z,99.90
2019-05-23T09:43:40.022Z,99.90
2019-05-23T09:48:35.531Z,99.90
2019-05-23T09:51:03.173Z,99.90
2019-05-23T09:53:30.876Z,99.90
2019-05-23T09:55:58.515Z,99.90
2019-05-23T09:58:26.155Z,99.90
2019-05-23T10:00:53.811Z,99.90
2019-05-23T10:03:21.468Z,99.90
2019-05-23T10:05:49.183Z,99.90
2019-05-23T10:10:44.201Z,99.90
2019-05-23T10:13:12.011Z,99.90
2019-05-23T10:15:43.927Z,99.90
2019-05-23T10:18:21.886Z,99.90
2019-05-23T10:20:49.540Z,99.90
2019-05-23T10:23:17.257Z,99.90
2019-05-23T10:25:45.042Z,99.90
2019-05-23T10:28:13.007Z,99.90
2019-05-23T10:30:40.808Z,99.90
2019-05-23T10:33:12.283Z,99.90
2019-05-23T10:35:38.126Z,99.90
2019-05-23T10:38:05.797Z,99.90
2019-05-23T10:40:33.491Z,99.90
2019-05-23T10:43:01.229Z,99.90
2019-05-23T10:45:28.932Z,99.90
2019-05-23T10:47:56.956Z,99.90
2019-05-23T10:50:24.655Z,99.90
2019-05-23T10:52:52.323Z,99.90
2019-05-23T10:55:19.963Z,99.90
2019-05-23T10:57:47.637Z,99.90
2019-05-23T11:00:17.085Z,99.90
2019-05-23T11:02:44.928Z,99.90
2019-05-23T11:05:14.176Z,99.90
2019-05-23T11:10:10.720Z,99.90
2019-05-23T11:15:09.420Z,99.90
2019-05-23T11:20:05.937Z,99.90
2019-05-23T11:22:34.475Z,99.90
2019-05-23T11:25:03.381Z,99.90
2019-05-23T11:29:58.654Z,99.90
2019-05-23T11:32:26.296Z,99.90
2019-05-23T11:34:53.946Z,99.90
2019-05-23T11:44:45.490Z,99.90
2019-05-23T11:47:13.948Z,98.80
2019-05-23T11:49:42.946Z,95.20
2019-05-23T11:52:11.259Z,92.00
2019-05-23T11:54:39.232Z,94.40
2019-05-23T11:57:08.558Z,92.90
2019-05-23T11:59:36.208Z,86.90
2019-05-23T12:02:17.289Z,91.10
2019-05-23T12:04:45.019Z,88.60
2019-05-23T12:07:14.308Z,90.50
2019-05-23T12:12:09.572Z,83.90
2019-05-23T12:14:37.888Z,85.50
2019-05-23T12:17:05.546Z,83.50
2019-05-23T12:19:33.271Z,84.20
2019-05-23T12:24:28.308Z,85.80
2019-05-23T12:26:56.268Z,87.00
2019-05-23T12:29:23.987Z,88.40
2019-05-23T12:31:51.625Z,86.30
2019-05-23T12:34:19.292Z,87.90
2019-05-23T12:36:46.938Z,93.90
2019-05-23T12:39:14.575Z,92.80
2019-05-23T12:41:42.237Z,89.90
2019-05-23T12:44:10.279Z,82.20
2019-05-23T12:46:37.994Z,85.20
2019-05-23T12:51:41.779Z,79.40
2019-05-23T12:54:09.632Z,79.10
2019-05-23T12:56:38.071Z,75.60
2019-05-23T12:59:05.802Z,76.50
2019-05-23T13:01:34.902Z,73.20
2019-05-23T13:04:02.830Z,71.40
2019-05-23T13:06:30.744Z,72.70
2019-05-23T13:08:58.460Z,70.60
2019-05-23T13:16:22.124Z,72.60
2019-05-23T13:18:49.779Z,71.80
2019-05-23T13:21:18.432Z,71.20
2019-05-23T13:23:46.120Z,70.80
2019-05-23T13:26:13.818Z,76.80
2019-05-23T13:28:41.563Z,77.00
2019-05-23T13:31:09.200Z,77.70
2019-05-23T13:33:36.830Z,78.00
2019-05-23T13:36:05.726Z,74.90
2019-05-23T13:38:33.626Z,72.30
2019-05-23T13:41:01.486Z,69.80
2019-05-23T13:43:29.908Z,67.40
2019-05-23T13:45:57.814Z,60.50
2019-05-23T13:48:28.071Z,64.10
2019-05-23T13:50:55.012Z,60.20
2019-05-23T13:53:22.657Z,60.50
2019-05-23T13:55:50.676Z,59.00
2019-05-23T13:58:18.653Z,60.70
2019-05-23T14:00:46.304Z,62.20
2019-05-23T14:05:41.742Z,64.60
2019-05-23T14:08:12.770Z,54.70
2019-05-23T14:10:39.312Z,58.60
2019-05-23T14:13:06.955Z,57.20
2019-05-23T14:15:36.436Z,59.90
2019-05-23T14:18:04.188Z,59.80
2019-05-23T14:20:31.907Z,59.60
2019-05-23T14:23:02.228Z,62.70
2019-05-23T14:25:30.324Z,66.20
2019-05-23T14:27:59.720Z,60.10
2019-05-23T14:30:37.686Z,67.60
2019-05-23T14:33:07.642Z,68.50
2019-05-23T14:35:36.945Z,72.50
2019-05-23T14:38:06.228Z,75.10
2019-05-23T14:40:34.130Z,77.70
2019-05-23T14:43:03.536Z,71.60
2019-05-23T14:45:32.920Z,68.00
2019-05-23T14:48:02.472Z,65.80
2019-05-23T14:50:43.546Z,63.90
2019-05-23T14:53:12.891Z,62.50
2019-05-23T14:55:40.609Z,61.00
2019-05-23T14:58:08.319Z,61.80
2019-05-23T15:00:36.853Z,61.80
2019-05-23T15:03:04.700Z,62.70
2019-05-23T15:05:32.429Z,64.70
2019-05-23T15:08:00.067Z,62.30
2019-05-23T15:10:28.409Z,62.70
2019-05-23T15:12:56.218Z,61.80
2019-05-23T15:15:23.961Z,63.00
2019-05-23T15:17:51.691Z,63.90
2019-05-23T15:20:19.440Z,64.80
2019-05-23T15:22:47.090Z,63.70
2019-05-23T15:25:14.911Z,66.50
2019-05-23T15:27:42.556Z,70.20
2019-05-23T15:32:37.583Z,70.50
2019-05-23T15:35:05.344Z,68.70
2019-05-23T15:37:33.563Z,67.00
2019-05-23T15:40:01.272Z,68.10
2019-05-23T15:42:29.899Z,67.90
2019-05-23T15:44:57.543Z,68.80
2019-05-23T15:47:26.973Z,68.10
2019-05-23T15:49:56.243Z,70.50
2019-05-23T15:52:28.705Z,73.30
2019-05-23T15:54:57.976Z,67.10
2019-05-23T15:57:30.255Z,66.50
2019-05-23T16:00:02.774Z,65.00
2019-05-23T16:02:38.192Z,60.40
2019-05-23T16:05:08.562Z,59.80
2019-05-23T16:07:36.263Z,60.00
2019-05-23T16:10:05.352Z,59.90
2019-05-23T16:12:33.968Z,61.20
2019-05-23T16:15:01.624Z,62.00
2019-05-23T16:17:29.498Z,60.90
2019-05-23T16:19:57.131Z,62.30
2019-05-23T16:22:24.850Z,61.80
2019-05-23T16:24:52.514Z,62.60
2019-05-23T16:27:20.308Z,62.80
2019-05-23T16:29:48.009Z,64.40
2019-05-23T16:32:15.724Z,65.60
2019-05-23T16:34:43.380Z,67.80
2019-05-23T16:37:11.168Z,69.50
2019-05-23T16:39:47.304Z,72.70
2019-05-23T16:42:08.546Z,72.20
2019-05-23T16:44:36.177Z,91.30
2019-05-23T16:49:31.249Z,72.10
2019-05-23T16:51:58.963Z,76.10
2019-05-23T16:54:28.321Z,76.40
2019-05-23T16:57:00.585Z,74.60
2019-05-23T16:59:29.911Z,79.00
2019-05-23T17:02:06.471Z,80.40
2019-05-23T17:07:21.375Z,93.20
2019-05-23T17:10:07.586Z,97.30
2019-05-23T17:12:30.129Z,99.90
2019-05-23T17:15:02.505Z,99.90
2019-05-23T17:17:56.782Z,99.90
2019-05-23T17:22:40.354Z,99.90
2019-05-23T17:25:24.872Z,99.90
2019-05-23T17:28:11.985Z,99.90
2019-05-23T17:30:50.281Z,99.90
2019-05-23T17:33:18.384Z,99.90
2019-05-23T17:35:46.017Z,99.90
2019-05-23T17:38:13.930Z,99.90
2019-05-23T17:45:36.680Z,99.90
2019-05-23T17:48:04.407Z,99.90
2019-05-23T17:50:34.748Z,99.90
2019-05-23T17:53:01.880Z,99.90
2019-05-23T17:57:57.131Z,99.90
2019-05-23T18:05:21.160Z,99.90
2019-05-23T18:07:49.031Z,99.90
2019-05-23T18:10:17.539Z,99.90
2019-05-23T18:15:13.402Z,99.90
2019-05-23T18:17:41.040Z,99.90
2019-05-23T18:20:09.363Z,99.90
2019-05-23T18:25:07.387Z,99.90
2019-05-23T18:27:35.199Z,99.90
2019-05-23T18:30:04.780Z,99.90
2019-05-23T18:32:32.483Z,99.90
2019-05-23T18:35:00.215Z,99.90
2019-05-23T18:37:27.918Z,99.90
2019-05-23T18:42:23.402Z,99.90
2019-05-23T18:44:51.115Z,99.90
2019-05-23T18:47:32.199Z,99.90
2019-05-23T18:50:01.616Z,99.90
2019-05-23T18:52:29.719Z,99.90
2019-05-23T18:54:57.470Z,99.90
2019-05-23T18:57:25.171Z,99.90
2019-05-23T18:59:52.819Z,99.90
2019-05-23T19:02:20.468Z,99.90
2019-05-23T19:04:48.252Z,99.90
2019-05-23T19:07:17.035Z,99.90
2019-05-23T19:14:40.312Z,99.90
2019-05-23T19:17:08.135Z,99.90
2019-05-23T19:19:35.893Z,99.90
2019-05-23T19:22:03.816Z,99.90
2019-05-23T19:24:31.994Z,99.90
2019-05-23T19:27:00.503Z,99.90
2019-05-23T19:31:57.610Z,99.90
2019-05-23T19:34:25.363Z,99.90
2019-05-23T19:36:53.371Z,99.90
2019-05-23T19:39:22.056Z,99.90
2019-05-23T19:41:49.707Z,99.90
2019-05-23T19:44:17.340Z,99.90
2019-05-23T19:46:45.327Z,99.90
2019-05-23T19:49:13.598Z,99.90
2019-05-23T19:54:08.948Z,99.90
2019-05-23T19:59:04.322Z,99.90
2019-05-23T20:01:33.921Z,99.90
2019-05-23T20:04:01.824Z,99.90
2019-05-23T20:06:30.627Z,99.90
2019-05-23T20:11:26.087Z,99.90
2019-05-23T20:13:53.904Z,99.90
2019-05-23T20:16:21.530Z,99.90
2019-05-23T20:18:49.347Z,99.90
2019-05-23T20:23:44.603Z,99.90
2019-05-23T20:26:12.517Z,99.90
2019-05-23T20:28:40.495Z,99.90
2019-05-23T20:31:08.418Z,99.90
2019-05-23T20:33:36.067Z,99.90
2019-05-23T20:36:05.409Z,99.90
2019-05-23T20:38:33.152Z,99.90
2019-05-23T20:41:00.928Z,99.90
2019-05-23T20:43:28.639Z,99.90
2019-05-23T20:45:56.277Z,99.90
2019-05-23T20:48:24.871Z,99.90
2019-05-23T20:50:52.666Z,99.90
2019-05-23T20:53:20.335Z,99.90
2019-05-23T20:55:47.979Z,99.90
2019-05-23T21:00:45.068Z,99.90
2019-05-23T21:03:12.714Z,99.90
2019-05-23T21:10:39.356Z,99.90
2019-05-23T21:15:35.279Z,99.90
2019-05-23T21:18:02.921Z,99.90
2019-05-23T21:20:30.572Z,99.90
2019-05-23T21:22:58.249Z,99.90
2019-05-23T21:25:26.799Z,99.90
2019-05-23T21:27:54.434Z,99.90
2019-05-23T21:30:22.074Z,99.90
2019-05-23T21:32:49.716Z,99.90
2019-05-23T21:35:17.390Z,99.90
2019-05-23T21:37:45.023Z,99.90
2019-05-23T21:40:30.655Z,99.90
2019-05-23T21:42:58.300Z,99.90
2019-05-23T21:47:53.298Z,99.90
2019-05-23T21:52:48.315Z,99.90
2019-05-23T21:55:17.494Z,99.90
2019-05-23T21:57:45.127Z,99.90
2019-05-23T22:00:15.954Z,99.90
2019-05-23T22:02:43.590Z,99.90
2019-05-23T22:05:12.874Z,99.90
2019-05-23T22:07:40.508Z,99.90
2019-05-23T22:10:08.527Z,99.90
2019-05-23T22:12:36.178Z,99.90
2019-05-23T22:15:04.787Z,99.90
2019-05-23T22:17:32.419Z,99.90
2019-05-23T22:20:00.063Z,99.90
2019-05-23T22:22:27.695Z,99.90
2019-05-23T22:24:55.394Z,99.90
2019-05-23T22:27:23.091Z,99.90
2019-05-23T22:29:51.081Z,99.90
2019-05-23T22:32:20.779Z,99.90
2019-05-23T22:34:55.826Z,99.90
2019-05-23T22:37:23.839Z,99.90
2019-05-23T22:39:51.537Z,99.90
2019-05-23T22:42:20.848Z,99.90
2019-05-23T22:44:48.553Z,99.90
2019-05-23T22:47:16.462Z,99.90
2019-05-23T22:49:44.187Z,99.90
2019-05-23T22:52:11.912Z,99.90
2019-05-23T22:54:39.555Z,99.90
2019-05-23T22:57:07.208Z,99.90
2019-05-23T22:59:34.843Z,99.90
2019-05-23T23:02:03.268Z,99.90
2019-05-23T23:04:30.906Z,99.90
2019-05-23T23:09:25.913Z,99.90
2019-05-23T23:11:53.639Z,99.90
2019-05-23T23:14:21.267Z,99.90
2019-05-23T23:16:49.383Z,99.90
2019-05-23T23:19:17.072Z,99.90
2019-05-23T23:21:44.734Z,99.90
2019-05-23T23:24:12.358Z,99.90
2019-05-23T23:31:34.845Z,99.90
2019-05-23T23:36:29.847Z,99.90
2019-05-23T23:38:57.476Z,99.90
2019-05-23T23:41:25.118Z,99.90
2019-05-23T23:43:59.130Z,99.90
2019-05-23T23:49:25.156Z,99.90
2019-05-23T23:52:10.446Z,99.90
2019-05-23T23:54:55.800Z,99.90
2019-05-23T23:57:41.166Z,99.90
